createdAt,value
2023-04-24T00:09:51.793Z,1.48
2023-04-24T00:12:19.479Z,1.65
2023-04-24T00:14:49.636Z,1.30
2023-04-24T00:17:16.719Z,1.30
2023-04-24T00:19:44.076Z,1.23
2023-04-24T00:22:11.888Z,1.30
2023-04-24T00:24:38.927Z,1.00
2023-04-24T00:27:05.982Z,0.85
2023-04-24T00:29:33.055Z,0.80
2023-04-24T00:32:00.566Z,1.00
2023-04-24T00:34:27.652Z,0.88
2023-04-24T00:36:55.770Z,1.20
2023-04-24T00:39:23.945Z,1.85
2023-04-24T00:41:52.564Z,1.80
2023-04-24T00:44:19.892Z,1.45
2023-04-24T00:46:47.532Z,1.50
2023-04-24T00:49:15.446Z,1.40
2023-04-24T00:51:46.627Z,1.42
2023-04-24T00:54:14.292Z,1.55
2023-04-24T00:56:42.541Z,1.60
2023-04-24T00:59:10.209Z,1.48
2023-04-24T01:01:37.367Z,1.77
2023-04-24T01:04:04.910Z,1.48
2023-04-24T01:06:32.901Z,2.38
2023-04-24T01:09:01.532Z,1.50
2023-04-24T01:11:29.100Z,1.70
2023-04-24T01:13:57.275Z,2.17
2023-04-24T01:16:24.421Z,2.22
2023-04-24T01:18:52.401Z,2.13
2023-04-24T01:21:22.530Z,2.58
2023-04-24T01:23:50.263Z,2.38
2023-04-24T01:26:18.827Z,2.67
2023-04-24T01:28:45.930Z,3.13
2023-04-24T01:31:13.028Z,3.28
2023-04-24T01:33:40.411Z,3.42
2023-04-24T01:36:08.610Z,3.65
2023-04-24T01:38:35.910Z,3.60
2023-04-24T01:41:03.540Z,3.72
2023-04-24T01:43:30.844Z,4.88
2023-04-24T01:45:57.893Z,4.55
2023-04-24T01:48:24.938Z,4.00
2023-04-24T01:50:52.302Z,4.00
2023-04-24T01:53:19.480Z,4.05
2023-04-24T01:55:47.465Z,4.03
2023-04-24T01:58:14.869Z,4.18
2023-04-24T02:00:42.064Z,3.88
2023-04-24T02:03:09.245Z,4.50
2023-04-24T02:05:36.326Z,4.60
2023-04-24T02:08:03.400Z,4.97
2023-04-24T02:10:30.522Z,4.35
2023-04-24T02:12:57.552Z,4.30
2023-04-24T02:15:24.632Z,4.50
2023-04-24T02:17:52.176Z,4.93
2023-04-24T02:20:19.511Z,5.10
2023-04-24T02:22:47.005Z,5.25
2023-04-24T02:25:14.049Z,4.53
2023-04-24T02:27:41.147Z,4.78
2023-04-24T02:30:09.111Z,5.20
2023-04-24T02:32:36.702Z,5.60
2023-04-24T02:35:04.022Z,4.75
2023-04-24T02:37:31.027Z,6.07
2023-04-24T02:39:58.068Z,6.60
2023-04-24T02:42:25.238Z,6.28
2023-04-24T02:44:53.442Z,5.88
2023-04-24T02:47:20.689Z,5.30
2023-04-24T02:49:47.849Z,5.63
2023-04-24T02:52:16.118Z,5.50
2023-04-24T02:54:43.994Z,5.32
2023-04-24T02:57:11.083Z,5.10
2023-04-24T02:59:38.191Z,6.20
2023-04-24T03:02:05.378Z,5.50
2023-04-24T03:04:33.178Z,4.75
2023-04-24T03:07:00.711Z,4.15
2023-04-24T03:09:27.750Z,3.85
2023-04-24T03:11:54.846Z,3.10
2023-04-24T03:14:22.446Z,3.50
2023-04-24T03:16:49.512Z,3.45
2023-04-24T03:19:16.738Z,2.80
2023-04-24T03:21:43.784Z,2.92
2023-04-24T03:24:10.887Z,2.65
2023-04-24T03:26:37.882Z,2.15
2023-04-24T03:29:04.887Z,1.83
2023-04-24T03:31:31.996Z,1.17
2023-04-24T03:33:58.986Z,1.17
2023-04-24T03:36:27.138Z,1.05
2023-04-24T03:38:54.156Z,0.95
2023-04-24T03:41:21.335Z,0.80
2023-04-24T03:43:48.449Z,0.98
2023-04-24T03:46:16.300Z,1.13
2023-04-24T03:48:43.472Z,1.50
2023-04-24T03:51:10.597Z,1.05
2023-04-24T03:53:37.726Z,0.95
2023-04-24T03:56:04.763Z,0.70
2023-04-24T03:58:32.008Z,1.08
2023-04-24T04:00:59.433Z,1.27
2023-04-24T04:03:27.153Z,1.42
2023-04-24T04:05:55.172Z,1.02
2023-04-24T04:08:22.514Z,1.05
2023-04-24T04:10:49.812Z,1.08
2023-04-24T04:13:16.884Z,0.75
2023-04-24T04:15:44.636Z,0.80
2023-04-24T04:18:12.207Z,1.00
2023-04-24T04:20:39.321Z,1.05
2023-04-24T04:23:06.373Z,0.90
2023-04-24T04:25:33.681Z,1.00
2023-04-24T04:28:00.771Z,0.90
2023-04-24T04:30:30.369Z,0.75
2023-04-24T04:32:57.589Z,0.80
2023-04-24T04:35:25.847Z,0.80
2023-04-24T04:37:54.340Z,0.88
2023-04-24T04:40:22.472Z,0.80
2023-04-24T04:42:49.501Z,0.63
2023-04-24T04:45:17.883Z,0.80
2023-04-24T04:47:45.365Z,0.90
2023-04-24T04:50:12.474Z,1.23
2023-04-24T04:52:39.549Z,1.20
2023-04-24T04:55:07.387Z,1.70
2023-04-24T04:57:34.478Z,2.08
2023-04-24T05:00:02.325Z,2.03
2023-04-24T05:02:29.486Z,2.35
2023-04-24T05:04:56.931Z,2.13
2023-04-24T05:07:24.130Z,2.70
2023-04-24T05:09:53.376Z,2.20
2023-04-24T05:12:20.435Z,2.50
2023-04-24T05:14:47.420Z,2.92
2023-04-24T05:17:15.076Z,2.90
2023-04-24T05:19:42.536Z,3.00
2023-04-24T05:22:10.670Z,3.72
2023-04-24T05:24:37.880Z,3.33
2023-04-24T05:27:05.961Z,3.42
2023-04-24T05:29:34.120Z,3.90
2023-04-24T05:32:01.845Z,4.15
2023-04-24T05:34:28.884Z,3.53
2023-04-24T05:36:55.949Z,3.47
2023-04-24T05:39:26.061Z,3.67
2023-04-24T05:41:53.737Z,3.20
2023-04-24T05:44:20.852Z,3.45
2023-04-24T05:46:48.144Z,2.78
2023-04-24T05:49:15.387Z,2.95
2023-04-24T05:51:42.780Z,3.55
2023-04-24T05:54:09.855Z,4.20
2023-04-24T05:56:36.954Z,3.25
2023-04-24T05:59:04.534Z,3.63
2023-04-24T06:01:32.494Z,3.33
2023-04-24T06:03:59.701Z,4.15
2023-04-24T06:06:28.225Z,2.88
2023-04-24T06:08:55.460Z,3.15
2023-04-24T06:11:23.983Z,3.05
2023-04-24T06:13:51.621Z,2.13
2023-04-24T06:16:19.515Z,2.63
2023-04-24T06:18:48.135Z,2.13
2023-04-24T06:21:17.517Z,2.08
2023-04-24T06:23:45.085Z,1.40
2023-04-24T06:26:12.135Z,1.48
2023-04-24T06:28:39.576Z,1.20
2023-04-24T06:31:06.660Z,1.00
2023-04-24T06:33:33.793Z,0.98
2023-04-24T06:36:01.108Z,0.90
2023-04-24T06:38:28.207Z,0.88
2023-04-24T06:40:55.259Z,1.00
2023-04-24T06:43:22.739Z,2.65
2023-04-24T06:45:49.864Z,3.28
2023-04-24T06:48:16.924Z,6.85
2023-04-24T06:50:43.946Z,9.13
2023-04-24T06:53:13.499Z,10.23
2023-04-24T06:55:40.655Z,10.20
2023-04-24T06:58:07.739Z,11.25
2023-04-24T07:00:34.739Z,11.02
2023-04-24T07:03:01.993Z,11.05
2023-04-24T07:05:29.212Z,10.80
2023-04-24T07:07:56.332Z,11.32
2023-04-24T07:10:24.238Z,10.27
2023-04-24T07:12:51.989Z,11.52
2023-04-24T07:15:20.450Z,11.20
2023-04-24T07:17:48.948Z,11.07
2023-04-24T07:20:16.582Z,12.65
2023-04-24T07:22:44.202Z,11.00
2023-04-24T07:25:11.223Z,11.38
2023-04-24T07:27:38.315Z,12.45
2023-04-24T07:30:06.055Z,10.80
2023-04-24T07:32:33.140Z,10.18
2023-04-24T07:35:00.655Z,10.43
2023-04-24T07:37:28.754Z,9.77
2023-04-24T07:39:56.388Z,9.45
2023-04-24T07:42:23.786Z,9.80
2023-04-24T07:44:52.721Z,9.98
2023-04-24T07:47:20.106Z,9.30
2023-04-24T07:49:47.168Z,8.80
2023-04-24T07:52:14.260Z,8.85
2023-04-24T07:54:42.061Z,9.38
2023-04-24T07:57:09.439Z,9.15
2023-04-24T07:59:36.593Z,9.90
2023-04-24T08:02:03.672Z,8.70
2023-04-24T08:04:31.003Z,9.40
2023-04-24T08:06:58.296Z,8.82
2023-04-24T08:09:41.464Z,7.85
2023-04-24T08:12:08.544Z,8.00
2023-04-24T08:14:36.087Z,8.80
2023-04-24T08:17:04.376Z,8.80
2023-04-24T08:19:31.767Z,6.95
2023-04-24T08:21:58.791Z,6.35
2023-04-24T08:24:26.003Z,6.72
2023-04-24T08:26:55.082Z,6.45
2023-04-24T08:29:22.159Z,6.40
2023-04-24T08:31:49.557Z,6.13
2023-04-24T08:34:16.747Z,6.65
2023-04-24T08:36:47.484Z,4.43
2023-04-24T08:39:16.044Z,4.78
2023-04-24T08:41:46.647Z,4.50
2023-04-24T08:44:16.664Z,4.70
2023-04-24T08:46:46.585Z,4.57
2023-04-24T08:49:17.247Z,4.53
2023-04-24T08:51:45.131Z,4.95
2023-04-24T08:54:13.403Z,5.65
2023-04-24T08:56:42.692Z,5.35
2023-04-24T08:59:10.000Z,6.45
2023-04-24T09:01:38.598Z,5.15
2023-04-24T09:04:07.617Z,6.00
2023-04-24T09:06:35.818Z,5.47
2023-04-24T09:09:04.477Z,5.55
2023-04-24T09:11:33.158Z,3.78
2023-04-24T09:14:01.737Z,3.63
2023-04-24T09:16:29.123Z,3.35
2023-04-24T09:18:56.588Z,2.72
2023-04-24T09:21:24.285Z,3.45
2023-04-24T09:24:00.634Z,3.08
2023-04-24T09:26:32.855Z,2.50
2023-04-24T09:29:00.781Z,2.42
2023-04-24T09:31:30.637Z,2.88
2023-04-24T09:34:01.779Z,2.42
2023-04-24T09:36:34.056Z,3.25
2023-04-24T09:39:02.352Z,3.25
2023-04-24T09:41:32.417Z,2.05
2023-04-24T09:44:13.250Z,2.55
2023-04-24T09:46:40.574Z,2.22
2023-04-24T09:49:13.377Z,2.55
2023-04-24T09:51:41.624Z,2.10
2023-04-24T09:54:22.773Z,2.55
2023-04-24T09:56:53.046Z,2.53
2023-04-24T09:59:20.929Z,2.50
2023-04-24T10:01:49.664Z,2.38
2023-04-24T10:04:28.498Z,1.77
2023-04-24T10:06:57.730Z,2.20
2023-04-24T10:09:27.177Z,2.28
2023-04-24T10:11:55.985Z,2.63
2023-04-24T10:14:26.038Z,2.20
2023-04-24T10:16:55.141Z,2.33
2023-04-24T10:19:23.874Z,2.22
2023-04-24T10:21:50.951Z,1.83
2023-04-24T10:24:21.386Z,2.03
2023-04-24T10:26:52.778Z,2.42
2023-04-24T10:29:20.728Z,1.55
2023-04-24T10:31:48.340Z,1.35
2023-04-24T10:34:17.990Z,1.17
2023-04-24T10:36:53.591Z,0.90
2023-04-24T10:39:27.264Z,1.23
2023-04-24T10:41:58.243Z,0.93
2023-04-24T10:44:25.833Z,0.90
2023-04-24T10:46:56.757Z,1.20
2023-04-24T10:49:31.413Z,0.98
2023-04-24T10:52:06.076Z,0.90
2023-04-24T10:54:47.219Z,1.35
2023-04-24T10:57:23.865Z,1.23
2023-04-24T11:00:14.287Z,1.20
2023-04-24T11:02:49.463Z,1.00
2023-04-24T11:05:22.679Z,1.30
2023-04-24T11:08:17.031Z,0.82
2023-04-24T11:10:48.623Z,0.90
2023-04-24T11:13:17.408Z,0.93
2023-04-24T11:15:45.059Z,0.55
2023-04-24T11:18:17.010Z,1.15
2023-04-24T11:20:48.387Z,1.25
2023-04-24T11:23:16.913Z,1.10
2023-04-24T11:25:44.064Z,1.48
2023-04-24T11:28:17.241Z,1.25
2023-04-24T11:30:45.118Z,0.80
2023-04-24T11:33:12.637Z,0.75
2023-04-24T11:35:42.618Z,0.88
2023-04-24T11:40:41.118Z,1.10
2023-04-24T11:43:10.415Z,1.15
2023-04-24T11:45:37.623Z,1.00
2023-04-24T11:48:05.074Z,0.90
2023-04-24T11:50:32.315Z,0.50
2023-04-24T11:53:01.541Z,0.60
2023-04-24T11:55:30.313Z,0.32
2023-04-24T11:57:59.532Z,0.45
2023-04-24T12:00:29.843Z,0.30
2023-04-24T12:03:12.530Z,0.60
2023-04-24T12:05:40.604Z,0.40
2023-04-24T12:08:07.906Z,0.30
2023-04-24T12:10:37.064Z,0.45
2023-04-24T12:13:04.296Z,0.60
2023-04-24T12:15:31.630Z,0.70
2023-04-24T12:17:58.859Z,0.80
2023-04-24T12:20:29.462Z,0.93
2023-04-24T12:23:01.745Z,0.55
2023-04-24T12:25:38.241Z,0.98
2023-04-24T12:28:05.232Z,0.85
2023-04-24T12:30:35.008Z,0.85
2023-04-24T12:33:03.601Z,0.80
2023-04-24T12:35:36.775Z,0.73
2023-04-24T12:38:09.114Z,0.40
2023-04-24T12:40:36.342Z,0.90
2023-04-24T12:43:13.528Z,0.77
2023-04-24T12:45:40.676Z,0.85
2023-04-24T12:48:07.858Z,0.50
2023-04-24T12:50:34.971Z,1.25
2023-04-24T12:53:02.105Z,0.90
2023-04-24T12:55:29.153Z,0.90
2023-04-24T12:57:57.060Z,1.30
2023-04-24T13:00:24.311Z,1.58
2023-04-24T13:02:52.875Z,2.08
2023-04-24T13:05:20.084Z,1.52
2023-04-24T13:07:47.217Z,1.92
2023-04-24T13:10:14.399Z,2.08
2023-04-24T13:12:42.037Z,3.03
2023-04-24T13:15:09.547Z,2.33
2023-04-24T13:17:36.631Z,2.00
2023-04-24T13:20:04.102Z,2.17
2023-04-24T13:22:31.256Z,2.33
2023-04-24T13:24:58.408Z,2.53
2023-04-24T13:27:25.576Z,2.20
2023-04-24T13:29:53.779Z,2.38
2023-04-24T13:32:21.158Z,2.42
2023-04-24T13:34:48.326Z,1.80
2023-04-24T13:37:16.002Z,2.35
2023-04-24T13:39:43.056Z,2.67
2023-04-24T13:42:10.527Z,1.60
2023-04-24T13:44:37.800Z,2.03
2023-04-24T13:47:04.950Z,2.38
2023-04-24T13:49:31.968Z,1.95
2023-04-24T13:51:59.164Z,2.55
2023-04-24T13:54:26.993Z,2.00
2023-04-24T13:56:58.783Z,2.45
2023-04-24T13:59:26.194Z,2.55
2023-04-24T14:01:54.360Z,2.63
2023-04-24T14:04:21.693Z,2.50
2023-04-24T14:06:50.066Z,2.60
2023-04-24T14:09:17.151Z,2.10
2023-04-24T14:11:44.239Z,2.15
2023-04-24T14:14:11.585Z,1.52
2023-04-24T14:16:38.644Z,2.40
2023-04-24T14:19:07.198Z,2.35
2023-04-24T14:21:34.502Z,2.03
2023-04-24T14:24:01.827Z,2.45
2023-04-24T14:26:28.878Z,2.08
2023-04-24T14:29:07.249Z,2.78
2023-04-24T14:31:41.443Z,2.88
2023-04-24T14:34:08.460Z,2.28
2023-04-24T14:36:36.050Z,2.67
2023-04-24T14:39:07.818Z,2.50
2023-04-24T14:41:40.116Z,3.00
2023-04-24T14:44:07.356Z,2.97
2023-04-24T14:46:34.695Z,2.28
2023-04-24T14:49:01.810Z,3.22
2023-04-24T14:51:28.889Z,2.60
2023-04-24T14:53:57.554Z,2.58
2023-04-24T14:56:24.537Z,2.53
2023-04-24T14:58:53.027Z,2.35
2023-04-24T15:01:20.183Z,2.75
2023-04-24T15:03:47.507Z,2.05
2023-04-24T15:06:15.140Z,2.20
2023-04-24T15:08:43.067Z,2.10
2023-04-24T15:11:10.953Z,2.08
2023-04-24T15:13:37.981Z,2.15
2023-04-24T15:16:05.920Z,2.30
2023-04-24T15:18:33.028Z,2.03
2023-04-24T15:21:00.408Z,1.77
2023-04-24T15:23:27.620Z,2.63
2023-04-24T15:25:54.995Z,1.83
2023-04-24T15:28:22.983Z,2.38
2023-04-24T15:30:50.047Z,2.53
2023-04-24T15:33:17.139Z,2.17
2023-04-24T15:35:44.246Z,2.13
2023-04-24T15:38:11.740Z,2.65
2023-04-24T15:40:39.101Z,2.60
2023-04-24T15:43:06.176Z,3.00
2023-04-24T15:45:33.962Z,2.63
2023-04-24T15:48:01.883Z,2.85
2023-04-24T15:50:29.239Z,3.08
2023-04-24T15:52:56.313Z,2.38
2023-04-24T15:55:24.090Z,4.47
2023-04-24T15:57:51.552Z,2.50
2023-04-24T16:00:18.929Z,3.05
2023-04-24T16:02:47.253Z,2.75
2023-04-24T16:05:15.067Z,2.80
2023-04-24T16:07:42.108Z,2.90
2023-04-24T16:10:09.853Z,2.95
2023-04-24T16:12:37.021Z,2.58
2023-04-24T16:15:04.588Z,2.40
2023-04-24T16:17:31.895Z,2.78
2023-04-24T16:19:58.973Z,2.80
2023-04-24T16:22:26.311Z,3.03
2023-04-24T16:24:54.581Z,2.78
2023-04-24T16:27:22.309Z,3.10
2023-04-24T16:29:49.546Z,2.75
2023-04-24T16:32:16.597Z,2.67
2023-04-24T16:34:43.931Z,2.60
2023-04-24T16:37:12.268Z,2.40
2023-04-24T16:39:43.920Z,2.63
2023-04-24T16:42:13.231Z,2.63
2023-04-24T16:44:41.368Z,2.95
2023-04-24T16:47:10.341Z,3.25
2023-04-24T16:49:37.637Z,3.08
2023-04-24T16:52:04.732Z,3.20
2023-04-24T16:54:34.614Z,3.10
2023-04-24T16:57:02.464Z,2.67
2023-04-24T16:59:33.432Z,2.85
2023-04-24T17:02:01.642Z,2.80
2023-04-24T17:04:29.111Z,3.45
2023-04-24T17:06:56.290Z,2.95
2023-04-24T17:09:24.392Z,3.22
2023-04-24T17:11:51.474Z,2.90
2023-04-24T17:14:18.503Z,3.17
2023-04-24T17:16:46.458Z,2.88
2023-04-24T17:19:13.677Z,2.83
2023-04-24T17:21:40.945Z,2.83
2023-04-24T17:24:08.184Z,2.70
2023-04-24T17:26:35.441Z,3.28
2023-04-24T17:29:02.573Z,3.03
2023-04-24T17:31:29.675Z,3.17
2023-04-24T17:33:56.780Z,2.70
2023-04-24T17:36:24.133Z,3.22
2023-04-24T17:38:52.847Z,4.00
2023-04-24T17:41:20.036Z,3.20
2023-04-24T17:43:47.237Z,2.03
2023-04-24T17:46:14.349Z,3.00
2023-04-24T17:48:41.888Z,2.70
2023-04-24T17:51:09.019Z,3.88
2023-04-24T17:53:36.450Z,3.53
2023-04-24T17:56:03.996Z,3.20
2023-04-24T17:58:31.606Z,2.40
2023-04-24T18:00:58.667Z,3.10
2023-04-24T18:03:25.933Z,2.38
2023-04-24T18:05:56.147Z,3.45
2023-04-24T18:08:24.139Z,3.08
2023-04-24T18:10:51.398Z,2.42
2023-04-24T18:13:18.546Z,3.40
2023-04-24T18:15:46.017Z,2.95
2023-04-24T18:18:13.180Z,3.05
2023-04-24T18:20:40.398Z,2.72
2023-04-24T18:23:07.444Z,2.35
2023-04-24T18:25:34.682Z,3.05
2023-04-24T18:28:01.852Z,3.40
2023-04-24T18:30:31.065Z,3.40
2023-04-24T18:32:58.762Z,2.80
2023-04-24T18:35:26.164Z,2.30
2023-04-24T18:37:54.271Z,2.63
2023-04-24T18:40:21.654Z,2.05
2023-04-24T18:42:48.860Z,2.80
2023-04-24T18:45:16.657Z,2.35
2023-04-24T18:47:44.148Z,2.17
2023-04-24T18:50:11.850Z,2.15
2023-04-24T18:52:39.226Z,2.28
2023-04-24T18:55:06.969Z,1.92
2023-04-24T18:57:34.307Z,2.58
2023-04-24T19:00:01.823Z,2.35
2023-04-24T19:02:29.035Z,2.72
2023-04-24T19:04:56.196Z,2.88
2023-04-24T19:07:24.418Z,2.53
2023-04-24T19:09:51.568Z,2.90
2023-04-24T19:12:19.580Z,2.92
2023-04-24T19:14:48.534Z,3.15
2023-04-24T19:17:22.934Z,2.28
2023-04-24T19:19:51.091Z,3.05
2023-04-24T19:22:20.061Z,1.77
2023-04-24T19:24:47.608Z,1.60
2023-04-24T19:27:15.718Z,2.00
2023-04-24T19:29:42.958Z,2.08
2023-04-24T19:32:10.024Z,1.45
2023-04-24T19:34:40.284Z,1.50
2023-04-24T19:37:08.045Z,1.50
2023-04-24T19:39:35.191Z,1.40
2023-04-24T19:42:06.492Z,1.73
2023-04-24T19:44:34.529Z,2.05
2023-04-24T19:47:01.932Z,1.63
2023-04-24T19:49:29.146Z,2.20
2023-04-24T19:51:56.209Z,1.58
2023-04-24T19:54:23.731Z,1.23
2023-04-24T19:56:50.794Z,1.00
2023-04-24T19:59:17.984Z,1.70
2023-04-24T20:01:45.192Z,1.45
2023-04-24T20:04:12.829Z,1.40
2023-04-24T20:06:40.181Z,1.27
2023-04-24T20:09:07.262Z,1.75
2023-04-24T20:11:34.563Z,1.65
2023-04-24T20:14:03.610Z,1.60
2023-04-24T20:16:31.194Z,1.40
2023-04-24T20:18:58.823Z,1.75
2023-04-24T20:21:26.582Z,1.83
2023-04-24T20:23:53.956Z,1.23
2023-04-24T20:26:22.139Z,1.45
2023-04-24T20:28:49.487Z,1.40
2023-04-24T20:31:17.025Z,1.80
2023-04-24T20:33:45.523Z,1.60
2023-04-24T20:36:12.587Z,1.70
2023-04-24T20:38:39.725Z,1.20
2023-04-24T20:41:08.715Z,1.02
2023-04-24T20:43:36.216Z,1.17
2023-04-24T20:46:03.495Z,2.47
2023-04-24T20:48:30.565Z,1.60
2023-04-24T20:50:57.642Z,1.65
2023-04-24T20:53:24.825Z,1.60
2023-04-24T20:55:52.547Z,1.25
2023-04-24T20:58:20.909Z,1.42
2023-04-24T21:00:48.369Z,1.98
2023-04-24T21:03:16.449Z,1.17
2023-04-24T21:05:43.638Z,1.50
2023-04-24T21:08:10.693Z,1.83
2023-04-24T21:10:37.731Z,1.75
2023-04-24T21:13:04.814Z,1.58
2023-04-24T21:15:32.966Z,1.92
2023-04-24T21:18:00.624Z,2.13
2023-04-24T21:20:27.772Z,1.55
2023-04-24T21:22:54.869Z,2.05
2023-04-24T21:25:22.609Z,1.33
2023-04-24T21:27:49.658Z,1.95
2023-04-24T21:30:16.842Z,1.40
2023-04-24T21:32:43.961Z,2.13
2023-04-24T21:35:10.944Z,1.70
2023-04-24T21:37:39.653Z,1.50
2023-04-24T21:40:07.883Z,1.88
2023-04-24T21:42:35.347Z,1.33
2023-04-24T21:45:02.432Z,1.63
2023-04-24T21:47:29.529Z,1.30
2023-04-24T21:49:56.884Z,1.55
2023-04-24T21:52:24.046Z,1.50
2023-04-24T21:54:51.071Z,1.38
2023-04-24T21:57:18.343Z,1.30
2023-04-24T21:59:45.635Z,1.83
2023-04-24T22:02:13.256Z,2.13
2023-04-24T22:04:40.672Z,2.03
2023-04-24T22:07:07.903Z,2.17
2023-04-24T22:09:34.881Z,2.67
2023-04-24T22:12:02.068Z,2.30
2023-04-24T22:14:29.164Z,2.28
2023-04-24T22:16:57.834Z,2.08
2023-04-24T22:19:26.228Z,3.65
2023-04-24T22:21:54.014Z,2.72
2023-04-24T22:24:21.090Z,3.25
2023-04-24T22:26:48.377Z,2.83
2023-04-24T22:29:15.402Z,3.22
2023-04-24T22:31:42.634Z,3.35
2023-04-24T22:34:10.145Z,4.05
2023-04-24T22:36:37.159Z,4.20
2023-04-24T22:39:05.350Z,4.32
2023-04-24T22:41:32.346Z,4.50
2023-04-24T22:43:59.553Z,4.40
2023-04-24T22:46:26.732Z,4.88
2023-04-24T22:48:54.127Z,4.25
2023-04-24T22:51:21.908Z,3.85
2023-04-24T22:53:49.777Z,4.07
2023-04-24T22:56:17.628Z,4.65
2023-04-24T22:58:45.318Z,3.60
2023-04-24T23:01:12.514Z,3.78
2023-04-24T23:03:39.910Z,4.00
2023-04-24T23:06:07.259Z,3.65
2023-04-24T23:08:34.408Z,4.50
2023-04-24T23:11:01.913Z,3.50
2023-04-24T23:13:29.110Z,3.88
2023-04-24T23:15:56.231Z,3.30
2023-04-24T23:18:23.753Z,4.38
2023-04-24T23:20:51.522Z,4.68
2023-04-24T23:23:19.217Z,4.25
2023-04-24T23:25:46.693Z,4.85
2023-04-24T23:28:13.796Z,3.92
2023-04-24T23:30:41.025Z,3.95
2023-04-24T23:33:08.606Z,4.20
2023-04-24T23:35:36.080Z,4.15
2023-04-24T23:38:03.197Z,4.75
2023-04-24T23:40:30.392Z,4.30
2023-04-24T23:43:06.135Z,3.55
2023-04-24T23:45:34.618Z,4.50
2023-04-24T23:48:01.979Z,4.57
2023-04-24T23:50:29.130Z,4.28
2023-04-24T23:52:56.591Z,4.47
2023-04-24T23:55:23.874Z,4.78
2023-04-24T23:57:50.848Z,5.47
